createdAt,value
2023-01-29T00:00:19.231Z,98710.00
2023-01-29T00:02:45.809Z,98698.00
2023-01-29T00:05:26.536Z,98723.00
2023-01-29T00:07:54.843Z,98708.00
2023-01-29T00:10:21.219Z,98699.00
2023-01-29T00:12:47.381Z,98704.00
2023-01-29T00:15:13.578Z,98707.00
2023-01-29T00:17:39.745Z,98706.00
2023-01-29T00:20:06.422Z,98698.00
2023-01-29T00:22:32.551Z,98694.00
2023-01-29T00:24:58.731Z,98706.00
2023-01-29T00:27:24.881Z,98703.00
2023-01-29T00:30:10.982Z,98688.00
2023-01-29T00:32:37.658Z,98690.00
2023-01-29T00:35:04.779Z,98680.00
2023-01-29T00:37:30.996Z,98681.00
2023-01-29T00:39:57.997Z,98676.00
2023-01-29T00:42:44.336Z,98656.00
2023-01-29T00:45:12.006Z,98681.00
2023-01-29T00:47:38.273Z,98671.00
2023-01-29T00:50:11.093Z,98671.00
2023-01-29T00:52:40.150Z,98671.00
2023-01-29T00:55:07.778Z,98655.00
2023-01-29T00:57:35.351Z,98652.00
2023-01-29T01:00:04.407Z,98679.00
2023-01-29T01:02:48.922Z,98639.00
2023-01-29T01:05:17.380Z,98650.00
2023-01-29T01:07:52.935Z,98657.00
2023-01-29T01:10:30.789Z,98659.00
2023-01-29T01:13:04.843Z,98660.00
2023-01-29T01:15:36.163Z,98658.00
2023-01-29T01:18:03.513Z,98655.00
2023-01-29T01:20:33.060Z,98657.00
2023-01-29T01:22:59.266Z,98660.00
2023-01-29T01:25:27.094Z,98656.00
2023-01-29T01:27:56.604Z,98670.00
2023-01-29T01:30:24.232Z,98669.00
2023-01-29T01:32:50.847Z,98664.00
2023-01-29T01:35:17.289Z,98675.00
2023-01-29T01:37:43.484Z,98690.00
2023-01-29T01:40:19.554Z,98672.00
2023-01-29T01:42:52.713Z,98683.00
2023-01-29T01:45:33.640Z,98687.00
2023-01-29T01:48:18.204Z,98680.00
2023-01-29T01:51:02.750Z,98678.00
2023-01-29T01:53:39.796Z,98669.00
2023-01-29T01:56:15.512Z,98672.00
2023-01-29T01:58:53.523Z,98682.00
2023-01-29T02:01:28.386Z,98657.00
2023-01-29T02:04:30.124Z,98671.00
2023-01-29T02:07:19.937Z,98653.00
2023-01-29T02:09:57.336Z,98665.00
2023-01-29T02:12:24.031Z,98662.00
2023-01-29T02:14:51.258Z,98665.00
2023-01-29T02:17:19.583Z,98656.00
2023-01-29T02:20:24.560Z,98639.00
2023-01-29T02:23:31.282Z,98653.00
2023-01-29T02:26:30.151Z,98647.00
2023-01-29T02:29:34.494Z,98642.00
2023-01-29T02:32:28.784Z,98656.00
2023-01-29T02:35:31.314Z,98653.00
2023-01-29T02:38:29.834Z,98636.00
2023-01-29T02:41:11.968Z,98656.00
2023-01-29T02:43:50.848Z,98645.00
2023-01-29T02:46:44.102Z,98662.00
2023-01-29T02:49:15.044Z,98670.00
2023-01-29T02:52:15.969Z,98669.00
2023-01-29T02:54:53.358Z,98662.00
2023-01-29T02:57:29.326Z,98657.00
2023-01-29T03:00:25.586Z,98658.00
2023-01-29T03:03:11.067Z,98656.00
2023-01-29T03:06:01.498Z,98663.00
2023-01-29T03:08:42.195Z,98657.00
2023-01-29T03:11:15.782Z,98657.00
2023-01-29T03:14:24.847Z,98675.00
2023-01-29T03:16:53.620Z,98670.00
2023-01-29T03:19:43.806Z,98671.00
2023-01-29T03:22:22.498Z,98686.00
2023-01-29T03:25:14.675Z,98689.00
2023-01-29T03:28:09.469Z,98689.00
2023-01-29T03:31:20.117Z,98677.00
2023-01-29T03:34:23.702Z,98675.00
2023-01-29T03:36:56.932Z,98678.00
2023-01-29T03:39:27.850Z,98712.00
2023-01-29T03:42:17.717Z,98680.00
2023-01-29T03:45:22.954Z,98684.00
2023-01-29T03:48:15.797Z,98681.00
2023-01-29T03:51:11.437Z,98678.00
2023-01-29T03:53:56.544Z,98678.00
2023-01-29T03:56:56.647Z,98665.00
2023-01-29T03:59:46.160Z,98672.00
2023-01-29T04:03:12.899Z,98659.00
2023-01-29T04:05:57.827Z,98647.00
2023-01-29T04:08:35.581Z,98643.00
2023-01-29T04:11:11.788Z,98630.00
2023-01-29T04:13:39.374Z,98658.00
2023-01-29T04:16:11.908Z,98651.00
2023-01-29T04:19:07.847Z,98651.00
2023-01-29T04:21:39.728Z,98647.00
2023-01-29T04:24:07.894Z,98656.00
2023-01-29T04:27:10.922Z,98640.00
2023-01-29T04:29:57.113Z,98653.00
2023-01-29T04:33:01.454Z,98656.00
2023-01-29T04:35:54.222Z,98646.00
2023-01-29T04:38:42.357Z,98644.00
2023-01-29T04:41:21.698Z,98625.00
2023-01-29T04:44:27.784Z,98632.00
2023-01-29T04:47:11.821Z,98619.00
2023-01-29T04:50:16.798Z,98624.00
2023-01-29T04:52:52.716Z,98624.00
2023-01-29T04:55:46.710Z,98628.00
2023-01-29T04:58:21.896Z,98631.00
2023-01-29T05:00:53.534Z,98638.00
2023-01-29T05:03:25.921Z,98629.00
2023-01-29T05:05:56.417Z,98618.00
2023-01-29T05:08:25.351Z,98634.00
2023-01-29T05:10:55.116Z,98615.00
2023-01-29T05:13:23.871Z,98612.00
2023-01-29T05:15:55.784Z,98617.00
2023-01-29T05:18:22.299Z,98627.00
2023-01-29T05:20:49.660Z,98606.00
2023-01-29T05:23:21.719Z,98621.00
2023-01-29T05:25:51.137Z,98607.00
2023-01-29T05:28:18.098Z,98611.00
2023-01-29T05:30:47.735Z,98588.00
2023-01-29T05:33:30.833Z,98576.00
2023-01-29T05:35:59.478Z,98562.00
2023-01-29T05:38:25.701Z,98570.00
2023-01-29T05:40:51.848Z,98556.00
2023-01-29T05:43:22.161Z,98566.00
2023-01-29T05:45:58.261Z,98567.00
2023-01-29T05:48:27.969Z,98569.00
2023-01-29T05:50:59.603Z,98558.00
2023-01-29T05:53:25.737Z,98549.00
2023-01-29T05:55:51.893Z,98554.00
2023-01-29T05:58:18.976Z,98571.00
2023-01-29T06:00:45.146Z,98580.00
2023-01-29T06:03:11.351Z,98588.00
2023-01-29T06:05:38.951Z,98584.00
2023-01-29T06:08:06.487Z,98555.00
2023-01-29T06:10:33.054Z,98580.00
2023-01-29T06:12:59.263Z,98591.00
2023-01-29T06:15:25.736Z,98587.00
2023-01-29T06:17:56.581Z,98593.00
2023-01-29T06:20:23.785Z,98595.00
2023-01-29T06:22:49.909Z,98597.00
2023-01-29T06:25:16.349Z,98620.00
2023-01-29T06:27:42.497Z,98616.00
2023-01-29T06:30:09.696Z,98623.00
2023-01-29T06:32:35.901Z,98634.00
2023-01-29T06:35:02.209Z,98628.00
2023-01-29T06:37:28.376Z,98628.00
2023-01-29T06:39:54.579Z,98614.00
2023-01-29T06:42:26.911Z,98622.00
2023-01-29T06:44:57.150Z,98628.00
2023-01-29T06:47:24.328Z,98638.00
2023-01-29T06:49:50.619Z,98642.00
2023-01-29T06:52:16.772Z,98648.00
2023-01-29T06:54:42.924Z,98639.00
2023-01-29T06:57:09.151Z,98650.00
2023-01-29T06:59:35.301Z,98648.00
2023-01-29T07:02:03.135Z,98655.00
2023-01-29T07:04:29.300Z,98645.00
2023-01-29T07:06:55.493Z,98635.00
2023-01-29T07:09:21.650Z,98638.00
2023-01-29T07:11:47.796Z,98634.00
2023-01-29T07:14:14.002Z,98626.00
2023-01-29T07:16:40.211Z,98639.00
2023-01-29T07:19:06.462Z,98635.00
2023-01-29T07:21:32.678Z,98635.00
2023-01-29T07:23:58.860Z,98644.00
2023-01-29T07:26:25.313Z,98644.00
2023-01-29T07:28:51.441Z,98653.00
2023-01-29T07:31:18.054Z,98663.00
2023-01-29T07:33:44.620Z,98643.00
2023-01-29T07:36:12.331Z,98650.00
2023-01-29T07:38:38.515Z,98659.00
2023-01-29T07:41:10.489Z,98661.00
2023-01-29T07:43:39.867Z,98662.00
2023-01-29T07:46:06.580Z,98653.00
2023-01-29T07:48:42.458Z,98649.00
2023-01-29T07:51:12.222Z,98625.00
2023-01-29T07:53:44.054Z,98531.00
2023-01-29T07:56:10.511Z,98602.00
2023-01-29T07:58:38.386Z,98614.00
2023-01-29T08:01:06.980Z,98624.00
2023-01-29T08:03:33.311Z,98628.00
2023-01-29T08:06:03.373Z,98601.00
2023-01-29T08:08:37.087Z,98603.00
2023-01-29T08:11:07.928Z,98626.00
2023-01-29T08:13:39.024Z,98622.00
2023-01-29T08:16:09.277Z,98614.00
2023-01-29T08:18:48.532Z,98614.00
2023-01-29T08:21:22.915Z,98633.00
2023-01-29T08:23:50.379Z,98618.00
2023-01-29T08:26:18.664Z,98633.00
2023-01-29T08:28:48.609Z,98632.00
2023-01-29T08:31:17.355Z,98608.00
2023-01-29T08:33:44.487Z,98618.00
2023-01-29T08:36:10.958Z,98645.00
2023-01-29T08:38:37.333Z,98645.00
2023-01-29T08:41:05.565Z,98611.00
2023-01-29T08:43:40.329Z,98619.00
2023-01-29T08:46:11.058Z,98633.00
2023-01-29T08:48:42.390Z,98629.00
2023-01-29T08:51:09.450Z,98607.00
2023-01-29T08:53:38.744Z,98605.00
2023-01-29T08:56:06.663Z,98607.00
2023-01-29T08:58:34.252Z,98602.00
2023-01-29T09:01:13.569Z,98616.00
2023-01-29T09:03:46.204Z,98647.00
2023-01-29T09:06:14.263Z,98624.00
2023-01-29T09:08:41.524Z,98643.00
2023-01-29T09:11:12.429Z,98627.00
2023-01-29T09:13:42.065Z,98609.00
2023-01-29T09:16:10.147Z,98592.00
2023-01-29T09:18:36.717Z,98583.00
2023-01-29T09:21:03.769Z,98595.00
2023-01-29T09:23:30.496Z,98594.00
2023-01-29T09:25:57.052Z,98570.00
2023-01-29T09:28:26.143Z,98599.00
2023-01-29T09:30:52.501Z,98598.00
2023-01-29T09:33:18.972Z,98586.00
2023-01-29T09:35:46.353Z,98591.00
2023-01-29T09:38:13.480Z,98601.00
2023-01-29T09:41:14.369Z,98585.00
2023-01-29T09:43:49.887Z,98573.00
2023-01-29T09:46:37.832Z,98571.00
2023-01-29T09:49:13.974Z,98569.00
2023-01-29T09:51:47.171Z,98555.00
2023-01-29T09:54:20.894Z,98561.00
2023-01-29T09:56:53.403Z,98560.00
2023-01-29T09:59:24.093Z,98565.00
2023-01-29T10:02:00.791Z,98573.00
2023-01-29T10:04:51.879Z,98583.00
2023-01-29T10:07:37.329Z,98581.00
2023-01-29T10:10:30.649Z,98591.00
2023-01-29T10:13:36.675Z,98590.00
2023-01-29T10:16:26.089Z,98577.00
2023-01-29T10:19:16.133Z,98572.00
2023-01-29T10:22:16.755Z,98555.00
2023-01-29T10:25:10.916Z,98563.00
2023-01-29T10:27:41.356Z,98562.00
2023-01-29T10:30:23.088Z,98547.00
2023-01-29T10:32:50.463Z,98579.00
2023-01-29T10:35:21.664Z,98560.00
2023-01-29T10:37:51.748Z,98572.00
2023-01-29T10:40:28.549Z,98581.00
2023-01-29T10:43:27.823Z,98594.00
2023-01-29T10:46:22.105Z,98590.00
2023-01-29T10:48:57.097Z,98578.00
2023-01-29T10:51:46.139Z,98565.00
2023-01-29T10:54:17.689Z,98556.00
2023-01-29T10:57:13.376Z,98550.00
2023-01-29T10:59:50.109Z,98536.00
2023-01-29T11:02:21.309Z,98535.00
2023-01-29T11:04:48.152Z,98523.00
2023-01-29T11:07:18.920Z,98526.00
2023-01-29T11:09:55.045Z,98526.00
2023-01-29T11:12:29.725Z,98505.00
2023-01-29T11:15:23.924Z,98488.00
2023-01-29T11:18:03.584Z,98504.00
2023-01-29T11:20:32.609Z,98499.00
2023-01-29T11:22:59.604Z,98486.00
2023-01-29T11:25:30.581Z,98481.00
2023-01-29T11:28:01.045Z,98485.00
2023-01-29T11:30:34.858Z,98486.00
2023-01-29T11:33:22.810Z,98485.00
2023-01-29T11:35:51.769Z,98479.00
2023-01-29T11:38:29.885Z,98480.00
2023-01-29T11:41:15.960Z,98464.00
2023-01-29T11:43:42.098Z,98449.00
2023-01-29T11:46:15.255Z,98464.00
2023-01-29T11:48:49.373Z,98443.00
2023-01-29T11:51:28.627Z,98442.00
2023-01-29T11:54:02.571Z,98428.00
2023-01-29T11:56:42.806Z,98442.00
2023-01-29T11:59:47.714Z,98424.00
2023-01-29T12:02:37.183Z,98428.00
2023-01-29T12:05:15.732Z,98416.00
2023-01-29T12:07:48.146Z,98419.00
2023-01-29T12:10:29.454Z,98428.00
2023-01-29T12:13:19.087Z,98415.00
2023-01-29T12:15:47.232Z,98410.00
2023-01-29T12:18:32.268Z,98405.00
2023-01-29T12:21:07.133Z,98423.00
2023-01-29T12:24:37.910Z,98422.00
2023-01-29T12:27:24.294Z,98396.00
2023-01-29T12:30:19.075Z,98401.00
2023-01-29T12:33:19.848Z,98372.00
2023-01-29T12:35:54.399Z,98378.00
2023-01-29T12:38:23.382Z,98371.00
2023-01-29T12:41:06.512Z,98388.00
2023-01-29T12:43:46.182Z,98364.00
2023-01-29T12:46:27.791Z,98350.00
2023-01-29T12:48:59.389Z,98372.00
2023-01-29T12:51:35.635Z,98353.00
2023-01-29T12:54:16.396Z,98350.00
2023-01-29T12:56:48.542Z,98346.00
2023-01-29T12:59:32.320Z,98344.00
2023-01-29T13:02:16.129Z,98332.00
2023-01-29T13:04:55.150Z,98325.00
2023-01-29T13:07:33.332Z,98312.00
2023-01-29T13:10:18.564Z,98315.00
2023-01-29T13:12:58.966Z,98311.00
2023-01-29T13:15:35.682Z,98306.00
2023-01-29T13:18:35.804Z,98320.00
2023-01-29T13:21:04.599Z,98313.00
2023-01-29T13:23:38.565Z,98301.00
2023-01-29T13:26:05.412Z,98306.00
2023-01-29T13:28:31.971Z,98295.00
2023-01-29T13:31:27.654Z,98299.00
2023-01-29T13:34:14.683Z,98292.00
2023-01-29T13:36:54.348Z,98289.00
2023-01-29T13:39:32.493Z,98291.00
2023-01-29T13:42:01.973Z,98268.00
2023-01-29T13:44:36.630Z,98272.00
2023-01-29T13:47:09.315Z,98256.00
2023-01-29T13:49:46.444Z,98261.00
2023-01-29T13:52:27.518Z,98247.00
2023-01-29T13:55:00.013Z,98243.00
2023-01-29T13:57:56.295Z,98254.00
2023-01-29T14:00:29.909Z,98247.00
2023-01-29T14:03:07.807Z,98248.00
2023-01-29T14:05:57.306Z,98244.00
2023-01-29T14:08:44.452Z,98235.00
2023-01-29T14:11:16.663Z,98241.00
2023-01-29T14:13:46.073Z,98257.00
2023-01-29T14:16:12.251Z,98246.00
2023-01-29T14:19:00.505Z,98241.00
2023-01-29T14:21:33.708Z,98252.00
2023-01-29T14:24:23.847Z,98247.00
2023-01-29T14:26:55.034Z,98229.00
2023-01-29T14:29:34.614Z,98241.00
2023-01-29T14:32:07.158Z,98240.00
2023-01-29T14:34:47.079Z,98238.00
2023-01-29T14:37:16.083Z,98248.00
2023-01-29T14:40:12.388Z,98253.00
2023-01-29T14:42:55.831Z,98239.00
2023-01-29T14:45:37.807Z,98248.00
2023-01-29T14:48:10.139Z,98262.00
2023-01-29T14:50:36.450Z,98243.00
2023-01-29T14:53:47.737Z,98259.00
2023-01-29T14:56:27.719Z,98260.00
2023-01-29T14:59:32.030Z,98247.00
2023-01-29T15:02:12.049Z,98252.00
2023-01-29T15:04:47.085Z,98244.00
2023-01-29T15:07:50.293Z,98265.00
2023-01-29T15:10:37.781Z,98269.00
2023-01-29T15:13:24.044Z,98266.00
2023-01-29T15:16:15.209Z,98252.00
2023-01-29T15:18:43.067Z,98256.00
2023-01-29T15:21:16.246Z,98263.00
2023-01-29T15:23:44.101Z,98257.00
2023-01-29T15:26:19.104Z,98259.00
2023-01-29T15:29:03.253Z,98259.00
2023-01-29T15:31:30.469Z,98248.00
2023-01-29T15:33:57.013Z,98252.00
2023-01-29T15:36:31.285Z,98248.00
2023-01-29T15:39:12.358Z,98247.00
2023-01-29T15:41:38.708Z,98253.00
2023-01-29T15:44:17.793Z,98245.00
2023-01-29T15:46:55.563Z,98248.00
2023-01-29T15:49:37.153Z,98233.00
2023-01-29T15:52:17.134Z,98228.00
2023-01-29T15:54:44.008Z,98238.00
2023-01-29T15:57:24.733Z,98223.00
2023-01-29T15:59:55.698Z,98218.00
2023-01-29T16:02:45.225Z,98224.00
2023-01-29T16:05:18.135Z,98227.00
2023-01-29T16:07:45.521Z,98230.00
2023-01-29T16:10:26.550Z,98226.00
2023-01-29T16:12:53.636Z,98231.00
2023-01-29T16:15:39.431Z,98215.00
2023-01-29T16:18:35.972Z,98220.00
2023-01-29T16:21:16.202Z,98223.00
2023-01-29T16:23:54.512Z,98228.00
2023-01-29T16:26:33.882Z,98204.00
2023-01-29T16:29:10.647Z,98202.00
2023-01-29T16:31:38.724Z,98209.00
2023-01-29T16:34:28.386Z,98222.00
2023-01-29T16:36:56.139Z,98208.00
2023-01-29T16:39:46.960Z,98217.00
2023-01-29T16:42:16.586Z,98209.00
2023-01-29T16:44:53.783Z,98203.00
2023-01-29T16:47:37.190Z,98216.00
2023-01-29T16:50:36.094Z,98210.00
2023-01-29T16:53:16.988Z,98201.00
2023-01-29T16:55:48.595Z,98205.00
2023-01-29T16:58:29.450Z,98204.00
2023-01-29T17:01:14.255Z,98202.00
2023-01-29T17:03:41.427Z,98210.00
2023-01-29T17:06:18.099Z,98205.00
2023-01-29T17:08:44.533Z,98198.00
2023-01-29T17:11:24.322Z,98173.00
2023-01-29T17:13:50.529Z,98189.00
2023-01-29T17:16:27.818Z,98190.00
2023-01-29T17:18:54.677Z,98196.00
2023-01-29T17:21:21.344Z,98204.00
2023-01-29T17:23:47.604Z,98187.00
2023-01-29T17:26:14.098Z,98201.00
2023-01-29T17:28:41.410Z,98185.00
2023-01-29T17:31:07.761Z,98212.00
2023-01-29T17:33:38.852Z,98195.00
2023-01-29T17:36:05.720Z,98177.00
2023-01-29T17:38:32.346Z,98197.00
2023-01-29T17:41:23.692Z,98193.00
2023-01-29T17:43:51.014Z,98179.00
2023-01-29T17:46:18.822Z,98162.00
2023-01-29T17:48:45.970Z,98164.00
2023-01-29T17:51:15.840Z,98168.00
2023-01-29T17:53:45.820Z,98148.00
2023-01-29T17:56:28.785Z,98147.00
2023-01-29T17:58:55.020Z,98141.00
2023-01-29T18:01:21.204Z,98163.00
2023-01-29T18:03:47.371Z,98140.00
2023-01-29T18:06:28.485Z,98143.00
2023-01-29T18:08:55.894Z,98135.00
2023-01-29T18:11:22.721Z,98135.00
2023-01-29T18:13:48.891Z,98151.00
2023-01-29T18:16:17.343Z,98161.00
2023-01-29T18:18:43.663Z,98148.00
2023-01-29T18:21:09.846Z,98141.00
2023-01-29T18:23:35.982Z,98144.00
2023-01-29T18:26:02.140Z,98138.00
2023-01-29T18:28:29.002Z,98144.00
2023-01-29T18:30:55.269Z,98125.00
2023-01-29T18:33:23.444Z,98122.00
2023-01-29T18:35:49.621Z,98129.00
2023-01-29T18:38:16.934Z,98140.00
2023-01-29T18:40:43.090Z,98145.00
2023-01-29T18:43:09.228Z,98120.00
2023-01-29T18:45:35.620Z,98129.00
2023-01-29T18:48:01.909Z,98136.00
2023-01-29T18:50:28.051Z,98124.00
2023-01-29T18:52:54.610Z,98134.00
2023-01-29T18:55:22.424Z,98135.00
2023-01-29T18:58:27.446Z,98141.00
2023-01-29T19:00:39.629Z,98118.00
2023-01-29T19:03:05.791Z,98125.00
2023-01-29T19:05:33.552Z,98118.00
2023-01-29T19:08:00.244Z,98119.00
2023-01-29T19:10:26.683Z,98105.00
2023-01-29T19:12:52.925Z,98125.00
2023-01-29T19:15:21.197Z,98113.00
2023-01-29T19:17:48.652Z,98104.00
2023-01-29T19:20:15.336Z,98096.00
2023-01-29T19:22:41.468Z,98106.00
2023-01-29T19:25:08.390Z,98087.00
2023-01-29T19:27:34.542Z,98080.00
2023-01-29T19:30:01.361Z,98066.00
2023-01-29T19:32:28.225Z,98056.00
2023-01-29T19:34:54.654Z,98068.00
2023-01-29T19:37:21.122Z,98068.00
2023-01-29T19:39:47.250Z,98069.00
2023-01-29T19:42:13.698Z,98064.00
2023-01-29T19:44:39.965Z,98049.00
2023-01-29T19:47:06.460Z,98058.00
2023-01-29T19:49:33.385Z,98038.00
2023-01-29T19:52:04.376Z,98031.00
2023-01-29T19:54:30.516Z,98029.00
2023-01-29T19:56:56.656Z,98040.00
2023-01-29T19:59:22.826Z,98038.00
2023-01-29T20:01:49.032Z,98018.00
2023-01-29T20:04:15.193Z,98027.00
2023-01-29T20:06:41.395Z,98039.00
2023-01-29T20:09:07.800Z,98039.00
2023-01-29T20:11:34.237Z,98041.00
2023-01-29T20:14:00.789Z,98044.00
2023-01-29T20:16:27.013Z,98037.00
2023-01-29T20:18:53.289Z,98026.00
2023-01-29T20:21:21.089Z,98011.00
2023-01-29T20:23:51.472Z,98007.00
2023-01-29T20:26:18.907Z,98017.00
2023-01-29T20:28:47.076Z,98009.00
2023-01-29T20:31:14.363Z,98007.00
2023-01-29T20:33:41.108Z,98004.00
2023-01-29T20:36:10.251Z,97997.00
2023-01-29T20:38:36.611Z,97997.00
2023-01-29T20:41:14.747Z,97996.00
2023-01-29T20:43:42.691Z,97991.00
2023-01-29T20:46:09.483Z,97987.00
2023-01-29T20:48:36.432Z,97986.00
2023-01-29T20:51:15.893Z,97981.00
2023-01-29T20:53:47.372Z,97968.00
2023-01-29T20:56:15.472Z,97959.00
2023-01-29T20:58:41.927Z,97939.00
2023-01-29T21:01:10.679Z,97942.00
2023-01-29T21:03:39.171Z,97941.00
2023-01-29T21:06:07.864Z,97924.00
2023-01-29T21:08:35.082Z,97925.00
2023-01-29T21:11:02.400Z,97923.00
2023-01-29T21:13:28.589Z,97913.00
2023-01-29T21:15:54.789Z,97915.00
2023-01-29T21:18:20.987Z,97931.00
2023-01-29T21:20:49.665Z,97914.00
2023-01-29T21:23:15.808Z,97922.00
2023-01-29T21:25:41.960Z,97917.00
2023-01-29T21:28:08.189Z,97905.00
2023-01-29T21:30:34.393Z,97930.00
2023-01-29T21:33:00.532Z,97931.00
2023-01-29T21:35:26.695Z,97911.00
2023-01-29T21:37:53.079Z,97898.00
2023-01-29T21:40:20.619Z,97885.00
2023-01-29T21:43:06.044Z,97879.00
2023-01-29T21:45:35.741Z,97869.00
2023-01-29T21:48:01.964Z,97896.00
2023-01-29T21:50:28.092Z,97896.00
2023-01-29T21:52:54.198Z,97896.00
2023-01-29T21:55:20.356Z,97883.00
2023-01-29T21:57:47.964Z,97887.00
2023-01-29T22:00:14.761Z,97877.00
2023-01-29T22:02:41.070Z,97857.00
2023-01-29T22:05:18.641Z,97865.00
2023-01-29T22:07:46.358Z,97868.00
2023-01-29T22:10:12.676Z,97883.00
2023-01-29T22:12:39.239Z,97858.00
2023-01-29T22:15:06.838Z,97881.00
2023-01-29T22:17:33.332Z,97887.00
2023-01-29T22:19:59.478Z,97878.00
2023-01-29T22:22:25.671Z,97876.00
2023-01-29T22:24:54.051Z,97876.00
2023-01-29T22:27:20.192Z,97890.00
2023-01-29T22:29:46.337Z,97874.00
2023-01-29T22:32:12.510Z,97882.00
2023-01-29T22:34:38.628Z,97904.00
2023-01-29T22:37:04.758Z,97885.00
2023-01-29T22:39:30.899Z,97894.00
2023-01-29T22:41:57.185Z,97888.00
2023-01-29T22:44:23.471Z,97852.00
2023-01-29T22:46:50.248Z,97841.00
2023-01-29T22:49:17.472Z,97843.00
2023-01-29T22:51:43.821Z,97859.00
2023-01-29T22:54:10.760Z,97850.00
2023-01-29T22:56:36.869Z,97855.00
2023-01-29T22:59:03.063Z,97838.00
2023-01-29T23:01:31.355Z,97835.00
2023-01-29T23:03:57.507Z,97844.00
2023-01-29T23:06:23.825Z,97836.00
2023-01-29T23:08:50.871Z,97847.00
2023-01-29T23:11:20.139Z,97837.00
2023-01-29T23:13:54.444Z,97829.00
2023-01-29T23:16:28.186Z,97823.00
2023-01-29T23:18:56.076Z,97848.00
2023-01-29T23:21:24.454Z,97840.00
2023-01-29T23:24:00.575Z,97839.00
2023-01-29T23:26:48.194Z,97818.00
2023-01-29T23:29:14.687Z,97805.00
2023-01-29T23:31:41.085Z,97794.00
2023-01-29T23:34:07.284Z,97789.00
2023-01-29T23:36:33.440Z,97780.00
2023-01-29T23:38:59.611Z,97770.00
2023-01-29T23:41:25.750Z,97772.00
2023-01-29T23:43:52.354Z,97757.00
2023-01-29T23:46:18.703Z,97735.00
2023-01-29T23:48:44.822Z,97736.00
2023-01-29T23:51:11.074Z,97729.00
2023-01-29T23:53:37.913Z,97715.00
2023-01-29T23:56:05.314Z,97702.00
2023-01-29T23:58:33.661Z,97692.00
